createdAt,value
2022-11-17T00:02:16.384Z,92.70
2022-11-17T00:04:45.058Z,92.90
2022-11-17T00:07:12.631Z,92.60
2022-11-17T00:09:40.181Z,92.50
2022-11-17T00:12:31.334Z,92.70
2022-11-17T00:15:00.653Z,92.90
2022-11-17T00:17:28.295Z,92.90
2022-11-17T00:20:14.217Z,92.80
2022-11-17T00:22:41.708Z,92.80
2022-11-17T00:25:09.372Z,92.80
2022-11-17T00:27:36.850Z,93.00
2022-11-17T00:30:04.663Z,92.70
2022-11-17T00:32:50.319Z,92.70
2022-11-17T00:35:17.857Z,92.40
2022-11-17T00:38:03.703Z,92.90
2022-11-17T00:40:31.341Z,92.40
2022-11-17T00:42:58.818Z,92.20
2022-11-17T00:45:26.318Z,92.10
2022-11-17T00:47:54.106Z,92.30
2022-11-17T00:50:21.596Z,92.30
2022-11-17T00:52:49.175Z,92.30
2022-11-17T00:55:16.785Z,92.40
2022-11-17T00:57:44.354Z,92.40
2022-11-17T01:00:14.231Z,92.30
2022-11-17T01:02:42.531Z,92.00
2022-11-17T01:05:10.020Z,92.00
2022-11-17T01:07:37.734Z,91.80
2022-11-17T01:10:05.491Z,91.60
2022-11-17T01:12:33.401Z,91.70
2022-11-17T01:15:00.918Z,91.60
2022-11-17T01:17:28.472Z,91.40
2022-11-17T01:19:56.000Z,91.40
2022-11-17T01:22:23.520Z,91.40
2022-11-17T01:24:51.810Z,91.50
2022-11-17T01:27:22.516Z,91.50
2022-11-17T01:29:50.013Z,91.40
2022-11-17T01:32:17.541Z,91.30
2022-11-17T01:34:45.165Z,91.40
2022-11-17T01:37:21.629Z,91.40
2022-11-17T01:39:50.323Z,91.40
2022-11-17T01:42:24.801Z,91.30
2022-11-17T01:45:01.270Z,91.20
2022-11-17T01:47:40.183Z,91.20
2022-11-17T01:50:11.031Z,91.10
2022-11-17T01:52:40.643Z,91.00
2022-11-17T01:55:09.590Z,91.00
2022-11-17T01:57:39.710Z,91.00
2022-11-17T02:00:08.686Z,90.90
2022-11-17T02:02:37.335Z,90.80
2022-11-17T02:05:10.926Z,90.80
2022-11-17T02:07:40.413Z,90.80
2022-11-17T02:10:08.119Z,90.70
2022-11-17T02:12:37.254Z,90.70
2022-11-17T02:15:05.438Z,90.60
2022-11-17T02:17:38.052Z,90.80
2022-11-17T02:20:23.688Z,90.60
2022-11-17T02:23:09.541Z,90.50
2022-11-17T02:25:43.970Z,90.50
2022-11-17T02:28:17.787Z,90.50
2022-11-17T02:30:55.394Z,90.40
2022-11-17T02:33:41.158Z,90.40
2022-11-17T02:36:17.300Z,90.30
2022-11-17T02:38:50.955Z,90.10
2022-11-17T02:41:29.652Z,90.20
2022-11-17T02:44:05.700Z,90.10
2022-11-17T02:46:41.080Z,90.10
2022-11-17T02:49:29.769Z,90.00
2022-11-17T02:51:58.808Z,89.80
2022-11-17T02:54:28.792Z,89.90
2022-11-17T02:56:56.380Z,89.70
2022-11-17T02:59:37.898Z,89.10
2022-11-17T03:02:11.602Z,89.20
2022-11-17T03:04:53.303Z,89.30
2022-11-17T03:07:39.376Z,89.40
2022-11-17T03:10:15.726Z,89.20
2022-11-17T03:13:01.962Z,88.90
2022-11-17T03:15:36.531Z,88.90
2022-11-17T03:18:08.051Z,88.80
2022-11-17T03:20:41.663Z,88.10
2022-11-17T03:23:17.260Z,88.00
2022-11-17T03:25:46.868Z,89.00
2022-11-17T03:28:17.000Z,88.00
2022-11-17T03:30:46.733Z,87.20
2022-11-17T03:33:16.502Z,87.60
2022-11-17T03:35:50.665Z,87.70
2022-11-17T03:38:19.997Z,86.50
2022-11-17T03:40:48.441Z,86.30
2022-11-17T03:43:17.203Z,86.80
2022-11-17T03:45:49.770Z,86.90
2022-11-17T03:48:28.799Z,87.10
2022-11-17T03:50:59.627Z,87.20
2022-11-17T03:53:27.585Z,86.80
2022-11-17T03:55:55.816Z,86.30
2022-11-17T03:58:25.200Z,83.70
2022-11-17T04:00:53.948Z,85.50
2022-11-17T04:03:24.501Z,85.70
2022-11-17T04:05:52.800Z,84.70
2022-11-17T04:08:20.401Z,84.90
2022-11-17T04:11:06.221Z,85.60
2022-11-17T04:13:51.824Z,85.10
2022-11-17T04:16:19.857Z,84.60
2022-11-17T04:18:47.375Z,84.50
2022-11-17T04:21:15.646Z,85.20
2022-11-17T04:23:43.986Z,85.70
2022-11-17T04:26:30.387Z,84.90
2022-11-17T04:28:57.846Z,83.60
2022-11-17T04:31:26.492Z,80.80
2022-11-17T04:33:55.387Z,82.00
2022-11-17T04:36:24.261Z,82.60
2022-11-17T04:38:54.669Z,82.80
2022-11-17T04:41:41.485Z,82.50
2022-11-17T04:44:10.056Z,82.00
2022-11-17T04:46:38.142Z,81.90
2022-11-17T04:49:05.921Z,81.10
2022-11-17T04:51:33.716Z,81.40
2022-11-17T04:54:01.973Z,81.80
2022-11-17T04:56:30.109Z,83.10
2022-11-17T04:59:00.723Z,82.70
2022-11-17T05:01:29.697Z,81.80
2022-11-17T05:03:58.865Z,80.60
2022-11-17T05:06:29.800Z,78.90
2022-11-17T05:08:57.284Z,80.10
2022-11-17T05:11:44.900Z,80.70
2022-11-17T05:14:13.708Z,80.50
2022-11-17T05:17:03.251Z,80.90
2022-11-17T05:19:45.290Z,80.60
2022-11-17T05:22:34.078Z,81.00
2022-11-17T05:25:01.590Z,81.40
2022-11-17T05:27:29.965Z,81.30
2022-11-17T05:30:00.046Z,82.50
2022-11-17T05:32:28.652Z,82.10
2022-11-17T05:34:56.125Z,82.50
2022-11-17T05:37:23.632Z,82.20
2022-11-17T05:39:51.936Z,82.80
2022-11-17T05:42:20.595Z,83.00
2022-11-17T05:44:48.831Z,82.20
2022-11-17T05:47:16.412Z,79.20
2022-11-17T05:49:44.157Z,81.70
2022-11-17T05:52:11.650Z,81.90
2022-11-17T05:54:39.131Z,81.50
2022-11-17T05:57:09.246Z,80.00
2022-11-17T05:59:37.564Z,78.00
2022-11-17T06:02:09.077Z,76.20
2022-11-17T06:04:36.935Z,78.20
2022-11-17T06:07:05.318Z,80.00
2022-11-17T06:09:34.612Z,77.00
2022-11-17T06:12:05.898Z,77.00
2022-11-17T06:14:37.156Z,76.90
2022-11-17T06:17:08.001Z,78.30
2022-11-17T06:19:39.111Z,77.40
2022-11-17T06:22:14.159Z,78.10
2022-11-17T06:24:43.668Z,78.30
2022-11-17T06:27:15.059Z,77.30
2022-11-17T06:29:44.822Z,77.60
2022-11-17T06:32:16.444Z,78.40
2022-11-17T06:34:47.957Z,76.50
2022-11-17T06:37:18.093Z,79.60
2022-11-17T06:39:45.645Z,79.20
2022-11-17T06:42:13.149Z,78.00
2022-11-17T06:44:40.660Z,72.40
2022-11-17T06:47:08.395Z,75.50
2022-11-17T06:49:36.633Z,79.10
2022-11-17T06:52:04.209Z,78.10
2022-11-17T06:54:31.721Z,76.70
2022-11-17T06:57:05.709Z,76.30
2022-11-17T06:59:34.085Z,74.10
2022-11-17T07:02:01.586Z,72.20
2022-11-17T07:04:29.031Z,75.20
2022-11-17T07:06:56.588Z,74.10
2022-11-17T07:09:27.110Z,75.20
2022-11-17T07:11:54.582Z,78.60
2022-11-17T07:14:28.838Z,77.10
2022-11-17T07:16:56.343Z,75.20
2022-11-17T07:19:24.621Z,76.00
2022-11-17T07:21:52.141Z,72.50
2022-11-17T07:24:19.578Z,74.80
2022-11-17T07:26:47.065Z,75.20
2022-11-17T07:29:14.638Z,76.40
2022-11-17T07:31:42.265Z,76.20
2022-11-17T07:34:10.116Z,75.40
2022-11-17T07:36:41.027Z,70.80
2022-11-17T07:39:09.392Z,72.00
2022-11-17T07:41:36.913Z,73.40
2022-11-17T07:44:04.830Z,74.00
2022-11-17T07:46:33.178Z,73.40
2022-11-17T07:49:00.837Z,73.70
2022-11-17T07:51:29.120Z,72.90
2022-11-17T07:53:56.636Z,73.80
2022-11-17T07:56:25.212Z,74.70
2022-11-17T07:58:55.263Z,72.70
2022-11-17T08:01:22.981Z,74.00
2022-11-17T08:03:50.585Z,73.80
2022-11-17T08:06:18.465Z,74.30
2022-11-17T08:08:46.062Z,72.10
2022-11-17T08:11:13.879Z,73.40
2022-11-17T08:13:41.550Z,75.00
2022-11-17T08:16:11.142Z,75.00
2022-11-17T08:18:39.411Z,75.70
2022-11-17T08:21:11.656Z,75.10
2022-11-17T08:23:40.093Z,75.60
2022-11-17T08:26:08.917Z,75.90
2022-11-17T08:28:36.866Z,70.90
2022-11-17T08:31:06.020Z,68.70
2022-11-17T08:33:34.847Z,71.80
2022-11-17T08:36:03.094Z,72.70
2022-11-17T08:38:30.987Z,73.10
2022-11-17T08:41:06.280Z,71.90
2022-11-17T08:43:34.290Z,72.00
2022-11-17T08:46:03.146Z,73.10
2022-11-17T08:48:31.886Z,73.60
2022-11-17T08:51:04.834Z,73.70
2022-11-17T08:53:32.509Z,76.10
2022-11-17T08:56:00.079Z,76.50
2022-11-17T08:58:27.742Z,76.10
2022-11-17T09:00:59.693Z,76.40
2022-11-17T09:03:29.983Z,75.90
2022-11-17T09:05:57.853Z,68.60
2022-11-17T09:11:13.287Z,70.80
2022-11-17T09:13:41.126Z,72.60
2022-11-17T09:16:10.370Z,72.60
2022-11-17T09:18:39.023Z,74.50
2022-11-17T09:21:11.400Z,75.00
2022-11-17T09:23:39.269Z,73.80
2022-11-17T09:26:08.291Z,73.50
2022-11-17T09:28:37.115Z,73.80
2022-11-17T09:31:12.751Z,73.90
2022-11-17T09:33:40.515Z,74.50
2022-11-17T09:36:08.368Z,70.90
2022-11-17T09:38:41.366Z,71.10
2022-11-17T09:41:11.975Z,71.60
2022-11-17T09:43:44.182Z,71.60
2022-11-17T09:46:24.086Z,72.10
2022-11-17T09:48:58.011Z,71.50
2022-11-17T09:51:26.929Z,72.40
2022-11-17T09:54:02.247Z,71.90
2022-11-17T09:56:33.927Z,72.30
2022-11-17T09:59:06.513Z,73.20
2022-11-17T10:01:34.005Z,73.60
2022-11-17T10:04:01.693Z,73.80
2022-11-17T10:06:30.819Z,72.70
2022-11-17T10:09:21.003Z,73.80
2022-11-17T10:11:53.548Z,74.90
2022-11-17T10:14:22.530Z,74.60
2022-11-17T10:17:00.044Z,74.50
2022-11-17T10:19:27.625Z,74.70
2022-11-17T10:22:04.593Z,75.20
2022-11-17T10:24:35.421Z,75.10
2022-11-17T10:27:04.117Z,74.70
2022-11-17T10:29:31.733Z,74.70
2022-11-17T10:32:00.902Z,74.60
2022-11-17T10:34:40.547Z,74.70
2022-11-17T10:37:15.525Z,74.80
2022-11-17T10:39:43.586Z,75.00
2022-11-17T10:42:17.995Z,75.00
2022-11-17T10:44:51.424Z,75.70
2022-11-17T10:47:33.922Z,74.80
2022-11-17T10:50:22.063Z,74.90
2022-11-17T10:52:50.484Z,75.10
2022-11-17T10:55:17.937Z,75.20
2022-11-17T10:57:47.793Z,75.30
2022-11-17T11:00:34.446Z,75.40
2022-11-17T11:03:04.835Z,75.50
2022-11-17T11:05:32.496Z,75.60
2022-11-17T11:08:16.671Z,75.70
2022-11-17T11:10:46.556Z,75.80
2022-11-17T11:13:17.247Z,76.20
2022-11-17T11:15:45.311Z,76.20
2022-11-17T11:18:19.359Z,76.40
2022-11-17T11:21:00.110Z,76.50
2022-11-17T11:23:56.975Z,76.60
2022-11-17T11:26:42.818Z,76.70
2022-11-17T11:29:11.040Z,76.70
2022-11-17T11:31:38.752Z,76.80
2022-11-17T11:34:15.738Z,76.80
2022-11-17T11:36:49.404Z,77.00
2022-11-17T11:39:23.152Z,77.10
2022-11-17T11:42:07.744Z,77.30
2022-11-17T11:44:50.833Z,77.50
2022-11-17T11:47:18.357Z,77.60
2022-11-17T11:50:01.291Z,77.80
2022-11-17T11:52:32.196Z,78.00
2022-11-17T11:55:05.852Z,78.00
2022-11-17T11:57:37.722Z,78.10
2022-11-17T12:00:07.194Z,78.20
2022-11-17T12:02:53.112Z,78.30
2022-11-17T12:05:26.728Z,78.40
2022-11-17T12:08:10.198Z,78.40
2022-11-17T12:10:49.680Z,78.50
2022-11-17T12:13:18.750Z,78.60
2022-11-17T12:15:46.286Z,78.80
2022-11-17T12:18:29.530Z,78.90
2022-11-17T12:21:01.359Z,78.90
2022-11-17T12:23:46.893Z,79.10
2022-11-17T12:26:25.101Z,79.20
2022-11-17T12:29:12.702Z,79.20
2022-11-17T12:31:44.477Z,79.40
2022-11-17T12:34:31.263Z,79.50
2022-11-17T12:37:16.918Z,79.50
2022-11-17T12:39:58.004Z,79.60
2022-11-17T12:42:26.050Z,79.60
2022-11-17T12:44:57.505Z,79.60
2022-11-17T12:47:29.352Z,79.70
2022-11-17T12:50:06.387Z,79.70
2022-11-17T12:52:45.876Z,79.70
2022-11-17T12:55:25.891Z,79.80
2022-11-17T12:57:58.811Z,79.80
2022-11-17T13:00:26.512Z,79.90
2022-11-17T13:03:05.467Z,79.90
2022-11-17T13:05:34.000Z,79.90
2022-11-17T13:08:21.664Z,80.00
2022-11-17T13:10:49.277Z,80.10
2022-11-17T13:13:20.709Z,80.30
2022-11-17T13:15:53.009Z,80.40
2022-11-17T13:18:27.069Z,80.60
2022-11-17T13:20:54.612Z,80.70
2022-11-17T13:23:23.581Z,80.90
2022-11-17T13:25:51.375Z,81.10
2022-11-17T13:28:29.389Z,81.30
2022-11-17T13:30:57.144Z,81.40
2022-11-17T13:33:25.227Z,81.70
2022-11-17T13:36:07.340Z,81.80
2022-11-17T13:38:35.154Z,82.00
2022-11-17T13:41:03.241Z,82.30
2022-11-17T13:43:38.230Z,82.40
2022-11-17T13:46:06.628Z,82.60
2022-11-17T13:48:35.407Z,82.80
2022-11-17T13:51:18.371Z,83.00
2022-11-17T13:53:48.929Z,83.00
2022-11-17T13:56:24.930Z,83.20
2022-11-17T13:58:53.473Z,83.40
2022-11-17T14:01:25.435Z,83.60
2022-11-17T14:03:53.036Z,83.60
2022-11-17T14:06:20.606Z,83.70
2022-11-17T14:09:02.497Z,84.00
2022-11-17T14:11:30.194Z,84.10
2022-11-17T14:14:01.428Z,84.10
2022-11-17T14:16:32.606Z,84.70
2022-11-17T14:19:04.741Z,84.80
2022-11-17T14:21:33.037Z,84.90
2022-11-17T14:24:07.743Z,85.00
2022-11-17T14:26:36.586Z,85.20
2022-11-17T14:29:04.254Z,85.00
2022-11-17T14:31:32.281Z,85.30
2022-11-17T14:34:00.382Z,85.50
2022-11-17T14:36:28.225Z,85.50
2022-11-17T14:38:56.031Z,85.80
2022-11-17T14:41:23.528Z,86.30
2022-11-17T14:43:51.542Z,86.30
2022-11-17T14:46:20.565Z,86.40
2022-11-17T14:48:48.402Z,86.50
2022-11-17T14:51:16.549Z,86.50
2022-11-17T14:53:44.823Z,87.10
2022-11-17T14:56:19.707Z,87.60
2022-11-17T14:58:47.736Z,87.80
2022-11-17T15:01:19.337Z,87.90
2022-11-17T15:03:47.236Z,88.00
2022-11-17T15:06:19.325Z,88.00
2022-11-17T15:08:49.045Z,88.50
2022-11-17T15:11:19.510Z,88.60
2022-11-17T15:13:47.046Z,88.00
2022-11-17T15:16:14.677Z,89.10
2022-11-17T15:18:44.742Z,88.60
2022-11-17T15:21:12.214Z,88.90
2022-11-17T15:23:40.608Z,89.10
2022-11-17T15:26:09.014Z,89.10
2022-11-17T15:28:36.523Z,89.40
2022-11-17T15:31:13.096Z,89.60
2022-11-17T15:33:41.612Z,89.70
2022-11-17T15:36:10.477Z,90.10
2022-11-17T15:38:38.460Z,90.10
2022-11-17T15:41:06.295Z,90.10
2022-11-17T15:43:35.717Z,90.10
2022-11-17T15:46:06.668Z,90.40
2022-11-17T15:48:34.945Z,90.30
2022-11-17T15:51:05.762Z,90.60
2022-11-17T15:53:34.597Z,90.40
2022-11-17T15:56:05.132Z,90.70
2022-11-17T15:58:33.309Z,90.50
2022-11-17T16:01:10.664Z,90.50
2022-11-17T16:03:38.651Z,90.60
2022-11-17T16:06:06.627Z,90.50
2022-11-17T16:08:34.821Z,90.80
2022-11-17T16:11:02.641Z,90.50
2022-11-17T16:13:30.237Z,90.60
2022-11-17T16:15:57.784Z,90.80
2022-11-17T16:18:25.712Z,90.90
2022-11-17T16:20:53.546Z,90.90
2022-11-17T16:23:21.311Z,90.80
2022-11-17T16:25:49.025Z,90.90
2022-11-17T16:28:17.463Z,90.90
2022-11-17T16:30:45.090Z,91.00
2022-11-17T16:33:14.044Z,90.90
2022-11-17T16:35:41.746Z,91.10
2022-11-17T16:38:13.556Z,90.90
2022-11-17T16:40:41.526Z,90.60
2022-11-17T16:43:12.457Z,90.60
2022-11-17T16:45:44.934Z,90.70
2022-11-17T16:48:12.777Z,90.80
2022-11-17T16:50:42.444Z,90.70
2022-11-17T16:53:09.969Z,91.00
2022-11-17T16:55:38.061Z,91.20
2022-11-17T16:58:06.475Z,91.20
2022-11-17T17:00:37.738Z,91.20
2022-11-17T17:03:05.464Z,91.20
2022-11-17T17:05:34.742Z,91.20
2022-11-17T17:08:04.458Z,91.10
2022-11-17T17:10:33.167Z,90.90
2022-11-17T17:13:01.609Z,91.00
2022-11-17T17:15:29.195Z,90.80
2022-11-17T17:17:56.828Z,90.90
2022-11-17T17:20:24.397Z,90.80
2022-11-17T17:22:51.992Z,90.90
2022-11-17T17:25:19.546Z,91.40
2022-11-17T17:27:47.093Z,91.40
2022-11-17T17:30:14.934Z,91.20
2022-11-17T17:32:42.402Z,91.60
2022-11-17T17:35:10.398Z,91.90
2022-11-17T17:37:37.869Z,91.60
2022-11-17T17:40:05.597Z,91.70
2022-11-17T17:42:33.080Z,91.50
2022-11-17T17:45:00.817Z,91.70
2022-11-17T17:47:28.267Z,91.70
2022-11-17T17:49:55.871Z,91.40
2022-11-17T17:52:23.407Z,91.40
2022-11-17T17:54:51.085Z,91.30
2022-11-17T17:57:18.582Z,91.60
2022-11-17T17:59:46.947Z,91.70
2022-11-17T18:02:14.918Z,91.30
2022-11-17T18:04:42.410Z,91.40
2022-11-17T18:07:10.172Z,91.50
2022-11-17T18:09:38.601Z,91.40
2022-11-17T18:12:06.255Z,91.50
2022-11-17T18:14:34.664Z,91.70
2022-11-17T18:17:02.238Z,91.80
2022-11-17T18:19:32.984Z,91.70
2022-11-17T18:22:01.853Z,91.60
2022-11-17T18:24:30.180Z,91.70
2022-11-17T18:26:58.437Z,91.80
2022-11-17T18:29:26.581Z,91.80
2022-11-17T18:31:54.089Z,91.70
2022-11-17T18:34:23.722Z,91.80
2022-11-17T18:36:53.262Z,91.70
2022-11-17T18:39:21.563Z,91.70
2022-11-17T18:41:49.089Z,91.80
2022-11-17T18:44:18.544Z,91.60
2022-11-17T18:46:46.287Z,91.70
2022-11-17T18:49:14.822Z,91.90
2022-11-17T18:51:43.130Z,91.90
2022-11-17T18:54:11.899Z,91.90
2022-11-17T18:56:40.137Z,91.80
2022-11-17T18:59:12.469Z,91.90
2022-11-17T19:01:41.870Z,91.80
2022-11-17T19:04:11.353Z,91.80
2022-11-17T19:06:39.715Z,91.80
2022-11-17T19:09:09.211Z,92.00
2022-11-17T19:11:36.774Z,92.00
2022-11-17T19:14:07.401Z,91.80
2022-11-17T19:16:44.629Z,91.60
2022-11-17T19:19:13.612Z,91.90
2022-11-17T19:21:41.744Z,91.90
2022-11-17T19:24:10.113Z,91.80
2022-11-17T19:26:37.742Z,91.90
2022-11-17T19:29:09.854Z,91.90
2022-11-17T19:31:40.310Z,92.20
2022-11-17T19:34:07.868Z,92.40
2022-11-17T19:36:35.722Z,92.40
2022-11-17T19:39:04.642Z,92.40
2022-11-17T19:41:41.610Z,92.00
2022-11-17T19:44:09.288Z,92.20
2022-11-17T19:46:37.840Z,92.40
2022-11-17T19:49:06.358Z,92.30
2022-11-17T19:51:34.920Z,93.10
2022-11-17T19:54:04.549Z,92.60
2022-11-17T19:56:36.363Z,92.30
2022-11-17T19:59:03.949Z,92.50
2022-11-17T20:01:32.989Z,92.50
2022-11-17T20:04:01.231Z,92.60
2022-11-17T20:06:30.302Z,92.50
2022-11-17T20:08:57.999Z,92.10
2022-11-17T20:11:27.100Z,92.40
2022-11-17T20:13:56.294Z,92.50
2022-11-17T20:16:24.923Z,92.80
2022-11-17T20:18:56.392Z,92.40
2022-11-17T20:21:24.600Z,92.60
2022-11-17T20:23:52.077Z,92.60
2022-11-17T20:26:26.927Z,92.60
2022-11-17T20:28:55.471Z,93.00
2022-11-17T20:31:28.075Z,92.90
2022-11-17T20:34:01.573Z,92.80
2022-11-17T20:36:31.076Z,92.80
2022-11-17T20:39:01.827Z,92.60
2022-11-17T20:41:29.908Z,92.80
2022-11-17T20:43:59.042Z,93.00
2022-11-17T20:46:27.157Z,92.90
2022-11-17T20:48:54.753Z,92.90
2022-11-17T20:51:23.642Z,92.90
2022-11-17T20:53:51.564Z,92.90
2022-11-17T20:56:20.048Z,92.70
2022-11-17T20:58:47.674Z,92.80
2022-11-17T21:01:22.900Z,92.70
2022-11-17T21:03:50.542Z,92.80
2022-11-17T21:06:18.749Z,93.00
2022-11-17T21:08:46.603Z,93.20
2022-11-17T21:11:34.127Z,93.10
2022-11-17T21:14:01.858Z,92.90
2022-11-17T21:16:29.583Z,93.00
2022-11-17T21:18:57.065Z,93.20
2022-11-17T21:21:25.523Z,93.10
2022-11-17T21:23:56.352Z,93.20
2022-11-17T21:26:25.225Z,93.60
2022-11-17T21:28:52.777Z,93.40
2022-11-17T21:31:21.620Z,93.60
2022-11-17T21:33:51.621Z,93.60
2022-11-17T21:36:19.597Z,93.70
2022-11-17T21:38:47.229Z,93.80
2022-11-17T21:41:16.510Z,93.80
2022-11-17T21:43:44.538Z,93.90
2022-11-17T21:46:25.943Z,94.00
2022-11-17T21:48:54.052Z,93.90
2022-11-17T21:51:23.010Z,94.30
2022-11-17T21:53:54.424Z,94.50
2022-11-17T21:56:22.044Z,93.90
2022-11-17T21:58:53.361Z,94.30
2022-11-17T22:01:21.013Z,94.30
2022-11-17T22:03:48.490Z,94.50
2022-11-17T22:06:18.381Z,94.50
2022-11-17T22:08:47.838Z,94.80
2022-11-17T22:11:35.705Z,94.40
2022-11-17T22:14:06.679Z,94.30
2022-11-17T22:16:35.835Z,94.20
2022-11-17T22:19:03.448Z,94.30
2022-11-17T22:21:31.108Z,94.20
2022-11-17T22:23:58.796Z,94.20
2022-11-17T22:26:27.673Z,94.10
2022-11-17T22:28:55.884Z,94.20
2022-11-17T22:31:23.526Z,94.10
2022-11-17T22:33:51.649Z,94.30
2022-11-17T22:36:19.567Z,94.40
2022-11-17T22:38:49.498Z,94.50
2022-11-17T22:41:17.740Z,94.40
2022-11-17T22:43:48.720Z,94.50
2022-11-17T22:46:16.293Z,94.50
2022-11-17T22:48:43.968Z,94.70
2022-11-17T22:51:11.418Z,94.30
2022-11-17T22:53:39.035Z,94.40
2022-11-17T22:56:07.876Z,94.40
2022-11-17T22:58:35.420Z,94.50
2022-11-17T23:01:07.566Z,94.50
2022-11-17T23:03:35.316Z,94.70
2022-11-17T23:06:04.105Z,94.50
2022-11-17T23:08:32.035Z,94.30
2022-11-17T23:11:34.815Z,94.40
2022-11-17T23:13:51.623Z,94.40
2022-11-17T23:16:20.046Z,94.90
2022-11-17T23:18:47.599Z,94.80
2022-11-17T23:21:15.528Z,94.80
2022-11-17T23:23:43.051Z,94.90
2022-11-17T23:26:11.320Z,94.70
2022-11-17T23:28:39.325Z,94.50
2022-11-17T23:31:08.439Z,94.50
2022-11-17T23:33:40.445Z,94.60
2022-11-17T23:36:13.219Z,94.80
2022-11-17T23:38:41.134Z,94.90
2022-11-17T23:41:11.104Z,94.90
2022-11-17T23:43:38.668Z,94.80
2022-11-17T23:46:08.440Z,94.80
2022-11-17T23:48:36.053Z,94.80
2022-11-17T23:51:07.246Z,94.70
2022-11-17T23:53:35.071Z,94.50
2022-11-17T23:56:02.702Z,94.40
2022-11-17T23:58:30.460Z,94.50
